createdAt,value
2022-08-03T07:11:26.743Z,79.58
2022-08-03T07:13:55.265Z,80.68
2022-08-03T07:16:23.424Z,81.66
2022-08-03T07:18:51.250Z,82.22
2022-08-03T07:21:18.900Z,81.97
2022-08-03T07:23:46.512Z,82.53
2022-08-03T07:26:14.526Z,82.43
2022-08-03T07:28:43.606Z,81.23
2022-08-03T07:31:11.443Z,81.01
2022-08-03T07:33:39.104Z,82.81
2022-08-03T07:36:06.911Z,81.99
2022-08-03T07:38:35.498Z,80.94
2022-08-03T07:41:03.332Z,80.51
2022-08-03T07:43:31.076Z,80.20
2022-08-03T07:46:00.295Z,77.94
2022-08-03T07:48:27.990Z,77.90
2022-08-03T07:50:55.601Z,80.30
2022-08-03T07:53:23.325Z,77.55
2022-08-03T07:55:51.209Z,77.91
2022-08-03T07:58:23.709Z,78.14
2022-08-03T08:00:52.288Z,77.64
2022-08-03T08:03:21.554Z,79.36
2022-08-03T08:05:49.428Z,77.12
2022-08-03T08:08:17.238Z,76.86
2022-08-03T08:10:58.095Z,77.88
2022-08-03T08:13:26.815Z,78.52
2022-08-03T08:15:54.627Z,78.50
2022-08-03T08:18:23.740Z,80.41
2022-08-03T08:20:52.235Z,80.03
2022-08-03T08:23:42.727Z,79.31
2022-08-03T08:26:07.823Z,78.50
2022-08-03T08:28:35.569Z,79.33
2022-08-03T08:31:03.206Z,78.37
2022-08-03T08:34:01.091Z,80.54
2022-08-03T08:36:20.228Z,77.29
2022-08-03T08:38:48.119Z,77.73
2022-08-03T08:41:16.465Z,76.15
2022-08-03T08:43:44.367Z,75.96
2022-08-03T08:46:13.302Z,76.98
2022-08-03T08:48:54.345Z,74.83
2022-08-03T08:51:22.815Z,77.42
2022-08-03T08:53:53.181Z,76.18
2022-08-03T08:56:23.080Z,76.37
2022-08-03T08:58:53.904Z,74.43
2022-08-03T09:01:21.760Z,74.98
2022-08-03T09:03:50.108Z,75.43
2022-08-03T09:06:19.231Z,75.57
2022-08-03T09:08:47.098Z,75.64
2022-08-03T09:11:15.000Z,74.77
2022-08-03T09:13:43.118Z,76.07
2022-08-03T09:16:14.177Z,72.93
2022-08-03T09:18:42.935Z,72.21
2022-08-03T09:21:34.978Z,72.76
2022-08-03T09:24:07.082Z,72.05
2022-08-03T09:26:38.272Z,71.50
2022-08-03T09:29:13.295Z,71.19
2022-08-03T09:31:44.190Z,67.71
2022-08-03T09:34:14.157Z,69.90
2022-08-03T09:36:45.486Z,70.26
2022-08-03T09:39:15.468Z,72.42
2022-08-03T09:41:45.820Z,71.61
2022-08-03T09:44:24.187Z,71.41
2022-08-03T09:46:55.416Z,70.28
2022-08-03T09:49:23.512Z,72.14
2022-08-03T09:52:32.782Z,69.82
2022-08-03T09:54:44.412Z,69.29
2022-08-03T09:57:21.985Z,67.54
2022-08-03T09:59:50.119Z,69.16
2022-08-03T10:02:22.242Z,67.15
2022-08-03T10:04:50.812Z,66.38
2022-08-03T10:07:20.803Z,66.20
2022-08-03T10:09:56.246Z,65.12
2022-08-03T10:12:24.898Z,65.65
2022-08-03T10:14:53.711Z,65.81
2022-08-03T10:17:22.779Z,66.27
2022-08-03T10:19:50.743Z,64.49
2022-08-03T10:22:23.422Z,63.44
2022-08-03T10:24:55.730Z,63.00
2022-08-03T10:27:24.541Z,63.02
2022-08-03T10:29:55.195Z,65.16
2022-08-03T10:32:28.714Z,65.04
2022-08-03T10:35:04.132Z,64.90
2022-08-03T10:37:58.851Z,64.88
2022-08-03T10:43:20.543Z,65.57
2022-08-03T10:45:49.138Z,62.36
2022-08-03T10:48:17.959Z,62.28
2022-08-03T10:50:46.905Z,61.76
2022-08-03T10:53:17.981Z,64.20
2022-08-03T10:55:48.767Z,62.43
2022-08-03T10:58:36.470Z,62.77
2022-08-03T11:01:05.831Z,62.02
2022-08-03T11:03:34.204Z,62.00
2022-08-03T11:06:16.007Z,58.63
2022-08-03T11:08:46.110Z,60.55
2022-08-03T11:11:26.477Z,59.09
2022-08-03T11:13:59.071Z,60.57
2022-08-03T11:16:28.193Z,62.31
2022-08-03T11:18:57.241Z,60.79
2022-08-03T11:21:56.057Z,60.30
2022-08-03T11:24:56.864Z,58.54
2022-08-03T11:27:27.637Z,57.30
2022-08-03T11:29:57.165Z,56.92
2022-08-03T11:32:58.255Z,55.89
2022-08-03T11:35:27.011Z,58.41
2022-08-03T11:38:09.455Z,59.46
2022-08-03T11:40:39.646Z,57.93
2022-08-03T11:43:09.967Z,58.74
2022-08-03T11:45:38.277Z,58.25
2022-08-03T11:48:17.011Z,56.71
2022-08-03T11:50:44.822Z,55.49
2022-08-03T11:53:17.363Z,58.16
2022-08-03T11:55:47.227Z,57.79
2022-08-03T11:59:01.028Z,57.13
2022-08-03T12:01:08.928Z,58.40
2022-08-03T12:03:37.163Z,58.47
2022-08-03T12:06:09.993Z,57.20
2022-08-03T12:08:37.987Z,57.19
2022-08-03T12:11:06.869Z,57.66
2022-08-03T12:14:44.469Z,57.49
2022-08-03T12:16:32.029Z,56.62
2022-08-03T12:19:01.682Z,56.31
2022-08-03T12:21:29.965Z,58.22
2022-08-03T12:23:58.028Z,55.74
2022-08-03T12:26:26.624Z,55.87
2022-08-03T12:28:55.853Z,58.44
2022-08-03T12:31:23.599Z,56.69
2022-08-03T12:34:00.462Z,55.58
2022-08-03T12:36:28.816Z,55.99
2022-08-03T12:38:57.959Z,55.50
2022-08-03T12:41:31.347Z,55.98
2022-08-03T12:44:00.673Z,55.05
2022-08-03T12:46:35.829Z,55.78
2022-08-03T12:49:07.093Z,57.49
2022-08-03T12:51:37.666Z,56.54
2022-08-03T12:54:06.272Z,56.23
2022-08-03T12:56:34.087Z,58.04
2022-08-03T12:59:32.482Z,59.21
2022-08-03T13:02:09.688Z,55.80
2022-08-03T13:04:37.992Z,56.02
2022-08-03T13:07:14.365Z,57.59
2022-08-03T13:09:43.908Z,56.85
2022-08-03T13:12:13.521Z,58.46
2022-08-03T13:14:43.973Z,56.61
2022-08-03T13:17:12.322Z,56.71
2022-08-03T13:19:40.509Z,57.33
2022-08-03T13:22:12.296Z,58.01
2022-08-03T13:24:40.186Z,58.39
2022-08-03T13:28:01.661Z,57.77
2022-08-03T13:29:57.903Z,55.81
2022-08-03T13:32:25.776Z,56.02
2022-08-03T13:34:53.398Z,57.76
2022-08-03T13:37:21.880Z,55.47
2022-08-03T13:39:59.501Z,56.36
2022-08-03T13:42:30.369Z,56.38
2022-08-03T13:44:59.832Z,56.19
2022-08-03T13:47:28.206Z,57.48
2022-08-03T13:50:01.941Z,58.38
2022-08-03T13:52:31.873Z,58.73
2022-08-03T13:54:59.831Z,59.00
2022-08-03T13:58:11.825Z,57.89
2022-08-03T14:00:27.680Z,58.63
2022-08-03T14:03:05.046Z,56.87
2022-08-03T14:05:34.270Z,57.86
2022-08-03T14:08:04.111Z,57.61
2022-08-03T14:10:46.180Z,55.86
2022-08-03T14:13:17.522Z,56.69
2022-08-03T14:15:49.805Z,56.02
2022-08-03T14:18:28.652Z,55.46
2022-08-03T14:21:05.463Z,55.85
2022-08-03T14:23:34.423Z,56.31
2022-08-03T14:26:02.313Z,56.41
2022-08-03T14:28:30.148Z,54.82
2022-08-03T14:30:59.277Z,54.81
2022-08-03T14:33:27.620Z,55.12
2022-08-03T14:35:55.786Z,53.40
2022-08-03T14:38:23.944Z,53.89
2022-08-03T14:40:52.101Z,54.03
2022-08-03T14:43:20.040Z,54.69
2022-08-03T14:45:47.854Z,55.23
2022-08-03T14:50:29.164Z,55.77
2022-08-03T14:51:04.997Z,55.88
2022-08-03T14:53:34.489Z,54.41
2022-08-03T14:56:05.281Z,54.83
2022-08-03T14:58:37.454Z,54.80
2022-08-03T15:02:03.367Z,55.07
2022-08-03T15:03:54.517Z,56.01
2022-08-03T15:06:22.469Z,54.35
2022-08-03T15:09:06.300Z,54.90
2022-08-03T15:11:37.985Z,56.37
2022-08-03T15:14:09.161Z,57.06
2022-08-03T15:16:38.269Z,56.54
2022-08-03T15:20:03.404Z,56.39
2022-08-03T15:21:55.295Z,55.85
2022-08-03T15:24:22.958Z,56.81
2022-08-03T15:26:51.658Z,56.46
2022-08-03T15:30:08.968Z,56.35
2022-08-03T15:32:09.619Z,56.82
2022-08-03T15:34:39.389Z,55.39
2022-08-03T15:37:16.494Z,55.07
2022-08-03T15:39:59.414Z,55.77
2022-08-03T15:42:29.486Z,56.56
2022-08-03T15:44:57.587Z,55.69
2022-08-03T15:47:25.689Z,55.88
2022-08-03T15:49:55.098Z,54.86
2022-08-03T15:52:22.902Z,55.96
2022-08-03T15:54:50.716Z,56.21
2022-08-03T15:57:18.894Z,55.63
2022-08-03T15:59:46.919Z,56.07
2022-08-03T16:02:14.946Z,57.26
2022-08-03T16:04:42.691Z,57.14
2022-08-03T16:07:17.721Z,56.29
2022-08-03T16:09:45.533Z,57.24
2022-08-03T16:12:16.014Z,56.18
2022-08-03T16:14:52.812Z,56.42
2022-08-03T16:17:22.457Z,56.44
2022-08-03T16:19:50.500Z,56.75
2022-08-03T16:22:25.033Z,56.57
2022-08-03T16:24:53.904Z,57.02
2022-08-03T16:27:56.890Z,57.77
2022-08-03T16:30:17.989Z,57.73
2022-08-03T16:32:46.589Z,58.43
2022-08-03T16:35:19.792Z,58.81
2022-08-03T16:37:56.221Z,59.06
2022-08-03T16:40:25.795Z,59.13
2022-08-03T16:42:53.898Z,59.50
2022-08-03T16:45:21.670Z,58.93
2022-08-03T16:48:05.536Z,59.02
2022-08-03T16:50:35.199Z,59.26
2022-08-03T16:53:06.138Z,58.92
2022-08-03T16:55:43.358Z,58.35
2022-08-03T16:58:42.664Z,58.47
2022-08-03T17:01:21.041Z,58.38
2022-08-03T17:04:01.842Z,58.21
2022-08-03T17:06:34.884Z,58.42
2022-08-03T17:09:08.859Z,58.55
2022-08-03T17:11:44.093Z,59.16
2022-08-03T17:14:17.288Z,59.08
2022-08-03T17:16:52.993Z,59.43
2022-08-03T17:19:23.731Z,59.91
2022-08-03T17:21:59.801Z,60.27
2022-08-03T17:24:33.414Z,60.19
2022-08-03T17:27:03.892Z,60.75
2022-08-03T17:29:39.391Z,60.75
2022-08-03T17:32:18.315Z,60.75
2022-08-03T17:34:49.533Z,61.40
2022-08-03T17:37:27.277Z,61.31
2022-08-03T17:40:08.182Z,62.63
2022-08-03T17:42:38.412Z,62.56
2022-08-03T17:45:07.502Z,62.92
2022-08-03T17:47:41.278Z,63.01
2022-08-03T17:50:24.649Z,63.22
2022-08-03T17:53:14.416Z,63.10
2022-08-03T17:56:04.904Z,63.96
2022-08-03T17:58:42.282Z,64.54
2022-08-03T18:02:00.295Z,64.81
2022-08-03T18:04:10.625Z,64.50
2022-08-03T18:06:40.320Z,65.03
2022-08-03T18:10:06.453Z,65.39
2022-08-03T18:12:25.896Z,65.86
2022-08-03T18:15:01.160Z,66.24
2022-08-03T18:17:55.393Z,66.55
2022-08-03T18:20:32.760Z,67.45
2022-08-03T18:23:04.652Z,67.32
2022-08-03T18:25:45.580Z,67.50
2022-08-03T18:28:23.138Z,67.70
2022-08-03T18:30:53.072Z,68.14
2022-08-03T18:34:17.379Z,68.64
2022-08-03T18:36:18.126Z,68.81
2022-08-03T18:38:50.122Z,69.17
2022-08-03T18:41:32.638Z,69.33
2022-08-03T18:44:07.010Z,70.19
2022-08-03T18:46:50.386Z,70.20
2022-08-03T18:49:29.057Z,70.85
2022-08-03T18:52:03.926Z,70.37
2022-08-03T18:54:51.713Z,71.17
2022-08-03T18:57:38.280Z,71.36
2022-08-03T19:00:12.451Z,71.39
2022-08-03T19:02:48.684Z,71.46
2022-08-03T19:05:19.641Z,71.52
2022-08-03T19:08:03.068Z,71.78
2022-08-03T19:10:34.560Z,71.72
2022-08-03T19:13:11.362Z,71.93
2022-08-03T19:15:51.245Z,72.02
2022-08-03T19:18:21.450Z,71.81
2022-08-03T19:20:51.146Z,71.97
2022-08-03T19:23:23.799Z,71.85
2022-08-03T19:25:52.540Z,71.97
2022-08-03T19:28:29.518Z,71.82
2022-08-03T19:31:02.574Z,71.91
2022-08-03T19:33:55.798Z,72.06
2022-08-03T19:36:26.402Z,72.43
2022-08-03T19:38:56.315Z,72.94
2022-08-03T19:41:31.259Z,73.45
2022-08-03T19:44:11.829Z,74.39
2022-08-03T19:46:54.307Z,75.42
2022-08-03T19:50:01.303Z,76.14
2022-08-03T19:52:20.870Z,76.92
2022-08-03T19:55:03.801Z,77.38
2022-08-03T19:57:33.825Z,77.79
2022-08-03T20:00:04.077Z,78.48
2022-08-03T20:02:34.943Z,78.62
2022-08-03T20:05:02.898Z,78.76
2022-08-03T20:07:31.691Z,79.11
2022-08-03T20:10:01.514Z,79.67
2022-08-03T20:12:38.608Z,79.85
2022-08-03T20:15:08.741Z,80.45
2022-08-03T20:17:55.902Z,80.15
2022-08-03T20:20:29.537Z,80.82
2022-08-03T20:22:58.708Z,81.23
2022-08-03T20:25:38.311Z,81.57
2022-08-03T20:28:13.902Z,82.23
2022-08-03T20:30:44.325Z,82.29
2022-08-03T20:33:18.267Z,82.40
2022-08-03T20:35:49.151Z,82.79
2022-08-03T20:38:18.863Z,82.86
2022-08-03T20:40:47.885Z,82.80
2022-08-03T20:43:15.771Z,83.31
2022-08-03T20:45:59.734Z,84.11
2022-08-03T20:48:35.881Z,84.20
2022-08-03T20:51:05.708Z,84.60
2022-08-03T20:54:00.153Z,85.28
2022-08-03T20:56:32.274Z,85.43
2022-08-03T20:59:03.269Z,84.78
2022-08-03T21:01:36.658Z,85.39
2022-08-03T21:04:09.342Z,85.44
2022-08-03T21:06:45.549Z,85.87
2022-08-03T21:09:25.056Z,85.69
2022-08-03T21:12:03.121Z,86.27
2022-08-03T21:14:38.900Z,86.69
2022-08-03T21:17:14.244Z,86.55
2022-08-03T21:19:52.003Z,86.79
2022-08-03T21:22:22.466Z,86.51
2022-08-03T21:24:55.846Z,86.99
2022-08-03T21:27:24.569Z,87.69
2022-08-03T21:29:53.933Z,87.69
2022-08-03T21:32:33.266Z,88.29
2022-08-03T21:35:02.705Z,88.80
2022-08-03T21:37:30.568Z,89.31
2022-08-03T21:39:58.498Z,89.49
2022-08-03T21:42:26.293Z,89.89
2022-08-03T21:44:54.284Z,89.89
2022-08-03T21:47:23.863Z,90.30
2022-08-03T21:50:06.247Z,90.43
2022-08-03T21:52:41.864Z,91.12
2022-08-03T21:55:20.648Z,91.19
2022-08-03T21:57:52.295Z,91.24
2022-08-03T22:00:22.004Z,91.45
2022-08-03T22:02:53.128Z,91.88
2022-08-03T22:05:42.559Z,92.06
2022-08-03T22:08:13.743Z,92.00
2022-08-03T22:10:43.728Z,92.24
2022-08-03T22:13:12.038Z,92.92
2022-08-03T22:15:40.379Z,92.80
2022-08-03T22:18:08.625Z,93.15
2022-08-03T22:20:36.788Z,93.43
2022-08-03T22:23:06.393Z,93.86
2022-08-03T22:25:38.397Z,94.13
2022-08-03T22:28:09.771Z,94.04
2022-08-03T22:30:39.459Z,94.48
2022-08-03T22:33:11.616Z,95.21
2022-08-03T22:35:48.054Z,95.69
2022-08-03T22:38:17.091Z,95.51
2022-08-03T22:40:48.565Z,95.46
2022-08-03T22:43:16.585Z,95.44
2022-08-03T22:46:06.169Z,95.37
2022-08-03T22:48:34.355Z,95.24
2022-08-03T22:51:03.095Z,95.57
2022-08-03T22:53:31.288Z,95.75
2022-08-03T22:56:01.424Z,96.52
2022-08-03T22:58:29.541Z,96.99
2022-08-03T23:01:03.133Z,96.62
2022-08-03T23:03:58.685Z,97.06
2022-08-03T23:06:21.820Z,97.30
2022-08-03T23:08:50.939Z,97.64
2022-08-03T23:11:22.177Z,97.61
2022-08-03T23:13:53.498Z,97.87
2022-08-03T23:16:28.997Z,98.32
2022-08-03T23:18:59.075Z,98.70
2022-08-03T23:21:53.446Z,99.01
2022-08-03T23:24:25.967Z,100.00
2022-08-03T23:27:00.357Z,100.00
2022-08-03T23:29:30.408Z,99.99
2022-08-03T23:31:58.642Z,100.00
2022-08-03T23:34:27.526Z,100.00
2022-08-03T23:36:55.876Z,100.00
2022-08-03T23:39:25.368Z,100.00
2022-08-03T23:41:53.762Z,100.00
2022-08-03T23:44:24.149Z,100.00
2022-08-03T23:46:53.654Z,100.00
2022-08-03T23:49:21.383Z,100.00
2022-08-03T23:52:03.348Z,100.00
2022-08-03T23:54:47.561Z,100.00
2022-08-03T23:57:32.977Z,100.00
